Terminal Aerodrome Forecast
Issued by NWS

Home | Current Version | Previous Version | Text Only | Print | Product List | Glossary On
Versions: 1 2 3 4 5 6 7 8 9 10 11 12 13 14
699
FTUS41 KPBZ 270533
TAFMGW
TAF
KMGW 270533Z 2706/2806 15007KT P6SM SCT250
     FM271600 18010G18KT P6SM SCT250
     FM272000 21009G17KT 5SM -SHRA VCTS BKN060CB
     FM280100 21006KT P6SM BKN020=

USA.gov is the U.S. government's official web portal to all federal, state and local government web resources and services.